Ogallah, KS

12:20 AM CDT on June 25, 2017 (GMT -0500)
Struss Lodge | | Change Station

Elev 2408 ft 38.99 °N, 99.87 °W | Updated 0 second ago

Partly Cloudy
Partly Cloudy
60.4 °F
Feels Like 60.4 °F
N
2.0
Wind Variable Wind from ENE
Gusts 3.0 mph

Today
High -- | Low -- °F
--% Chance of Precip.
Yesterday
High -- | Low -- °F
Precip. -- in
Pressure 30.25 in
Visibility 10.0 miles
Clouds Few 11000 ft
Dew Point 50 °F
Humidity 70%
Rainfall 0.00 in
Snow Depth Not available.
6:14 AM 9:08 PM
New Moon, 2% visible
METAR KHYS 250456Z AUTO 09004KT 10SM FEW110 17/10 A3027 RMK AO2 SLP241 T01720100
Pressure 30.25 in
Visibility 10.0 miles
Clouds Few 11000 ft
Dew Point 50 °F
Humidity 70%
Rainfall 0.00 in
Snow Depth Not available.
6:14 AM 9:08 PM
New Moon, 2% visible
METAR KHYS 250456Z AUTO 09004KT 10SM FEW110 17/10 A3027 RMK AO2 SLP241 T01720100

Get Severe Weather Alerts

Thanks for signing up!

Be on the lookout for a verification email in your inbox.

You'll start receiving the daily forecast at 6 AM.

×

10-Day Weather Forecast

Almanac

Astronomy

Jun. 25, 2017 Rise Set
Actual Time
Civil Twilight
Nautical Twilight
Astronomical Twilight
Moon
Length of Visible Light
Length of Day
Tomorrow will be .
, % of the Moon is Illuminated

Today's Extremes

State Highs State Lows

Community

WunderPhotos

Category 6

Welcome to Category 6. This is the collective home for Weather Underground's featured writeups by Dr. Jeff Masters (right), Bob Henson (left), Chris Burt, and other regular contributors.

Nearby

Air Quality

  Air Quality AQ Index Pollutant
Not available.

Snow Depth

Station Depth Elevation

Earthquake Activity

City Distance Mag. Time & Date
Minimum magnitude displayed is 2.5.

Coastal Water Temperatures

Place Temperature

Stations

Nearby Weather Stations

Station Location Temp. Windchill Dew Point Humidity Wind Precip. Elev Updated Type
                   

Watches & Warnings

There are currently no watches in effect.